Terminal Aerodrome Forecast
Issued by NWS

Home | Current Version | Previous Version | Text Only | Print | Product List | Glossary On
Versions: 1 2 3 4 5 6 7 8 9 10 11 12 13 14 15 16 17
000
FTUS44 KLZK 231426 AAC
TAFLLQ
TAF AMD
KLLQ 231426Z 2314/2412 05011G16KT P6SM SCT030
     FM231600 05007KT P6SM VCTS SCT025CB BKN050 OVC100
     FM232100 04005KT P6SM VCSH SCT040 BKN250
     FM240300 VRB03KT P6SM BKN250=

USA.gov is the U.S. government's official web portal to all federal, state and local government web resources and services.